Hyde Park, Ohio
Current Conditions -  °F | °C
As of 3:53 AM on Saturday 22 Nov 2014 (Local Time) from KLUK Reporting Station
Overcast Overcast  
Wind Chill: 31°   Ceiling: 3600
Heat Index: 31°   Visibility: 10mi
Dew Point: 19°   Wind: 3mph
Humidity: 61%   Direction: 250°WSW
Pressure: 30.35"   Gusts: NA
Location:  39.1347°N, 84.4352°W
Report Text: KLUK 220853Z 25003KT 10SM OVC036 M01/M07 A3035 RMK AO2 SLP282 T10061072 56016
Loading
Personal Weather Stations






























Interactive Weather Map New forecast layout! Learn more

10-Day Weather Forecast

Advertisements
Track Severe Weather on mobile